Gilbert, South Carolina
Current Conditions -  °F | °C
As of 7:56 AM on Friday 24 Oct 2014 (Local Time) from KCAE Reporting Station
Broken Clouds Broken Clouds  
Wind Chill: 45°   Ceiling: 15000
Heat Index: 45°   Visibility: 10mi
Dew Point: 42°   Wind: 3mph
Humidity: 90%   Direction: 300°WNW
Pressure: 30.06"   Gusts: NA
Location:  33.92°N, 81.39°W
Report Text: KCAE 241156Z 30003KT 10SM BKN150 07/06 A3006 RMK AO2 SLP180 T00720056 10111 20067 53014
Loading
Personal Weather Stations






























Interactive Weather Map
Tropical Storm Tracking
New forecast layout! Learn more

10-Day Weather Forecast

Advertisements
Track Severe Weather on mobile